Time;durP1;ratioP1;P1;durP2;ratioP2;P2;SDS_P1;SDS_P2;PMS_P1;PMS_P2;Temp;Humidity;BMP_temperature;BMP_pressure;BME280_temperature;BME280_humidity;BME280_pressure;Samples;Min_cycle;Max_cycle;Signal;HPM_P1;HPM_P2
2022/06/17 00:00:12;;;;;;;11.50;10.18;;;;;;;15.65;89.18;102122.50;172650;28;931;-67
2022/06/17 00:00:18;;;;;;;12.05;10.23;;;;;;;15.66;89.07;102126.81;172648;28;1267;-68
2022/06/17 00:00:24;;;;;;;12.40;10.40;;;;;;;15.65;89.16;102114.59;172728;28;848;-68
2022/06/17 00:00:30;;;;;;;12.86;10.24;;;;;;;15.65;89.25;102122.50;172596;28;1968;-68
2022/06/17 00:00:35;;;;;;;12.10;10.03;;;;;;;15.65;88.81;102125.13;172675;28;1012;-68
2022/06/17 00:00:40;;;;;;;12.75;10.18;;;;;;;15.65;89.03;102125.13;172692;28;823;-67
2022/06/17 00:00:50;;;;;;;12.83;10.20;;;;;;;15.65;88.74;102114.59;172651;28;963;-68
2022/06/17 00:01:00;;;;;;;13.24;10.07;;;;;;;15.65;88.59;102114.59;172665;28;1192;-68
2022/06/17 00:01:05;;;;;;;12.23;9.90;;;;;;;15.65;88.81;102122.50;172674;28;1138;-68
2022/06/17 00:01:10;;;;;;;12.57;9.80;;;;;;;15.66;88.58;102110.16;172656;28;719;-67
2022/06/17 00:01:16;;;;;;;12.23;9.75;;;;;;;15.65;88.78;102114.59;171908;28;896;-68
2022/06/17 00:01:24;;;;;;;12.27;9.63;;;;;;;15.65;89.04;102111.09;171966;28;912;-68
2022/06/17 00:01:32;;;;;;;12.63;9.70;;;;;;;15.65;88.44;102119.00;172001;28;1053;-68
2022/06/17 00:01:38;;;;;;;11.12;9.73;;;;;;;15.65;88.61;102113.72;171990;28;982;-68
2022/06/17 00:01:43;;;;;;;11.25;10.00;;;;;;;15.64;88.44;102112.88;171996;28;868;-68
2022/06/17 00:01:49;;;;;;;12.30;10.33;;;;;;;15.64;88.59;102118.13;171465;28;923;-68
2022/06/17 00:01:55;;;;;;;12.38;10.35;;;;;;;15.65;88.72;102114.59;171932;28;935;-68
2022/06/17 00:02:00;;;;;;;12.50;10.30;;;;;;;15.64;88.58;102112.03;171988;28;952;-67
2022/06/17 00:02:06;;;;;;;12.68;10.18;;;;;;;15.64;88.35;102112.88;172688;28;1139;-68
2022/06/17 00:02:12;;;;;;;11.95;9.88;;;;;;;15.65;88.39;102108.47;172701;28;979;-68
2022/06/17 00:02:17;;;;;;;11.83;9.70;;;;;;;15.65;88.51;102119.88;172652;28;987;-68
2022/06/17 00:02:22;;;;;;;11.07;9.60;;;;;;;15.64;88.71;102107.59;172709;28;887;-67
2022/06/17 00:02:29;;;;;;;11.37;9.57;;;;;;;15.64;88.62;102112.88;172666;28;1030;-67
2022/06/17 00:02:34;;;;;;;11.32;9.70;;;;;;;15.64;88.84;102110.25;172669;28;907;-68
2022/06/17 00:02:40;;;;;;;11.73;9.80;;;;;;;15.63;88.24;102105.91;172668;28;750;-68
2022/06/17 00:02:45;;;;;;;11.80;9.93;;;;;;;15.64;88.62;102107.59;172666;28;943;-68
2022/06/17 00:02:50;;;;;;;11.85;9.93;;;;;;;15.64;88.94;102107.59;172664;28;1042;-67
2022/06/17 00:02:56;;;;;;;11.27;9.90;;;;;;;15.64;88.65;102115.50;172678;28;840;-68
2022/06/17 00:03:01;;;;;;;12.90;9.80;;;;;;;15.64;88.85;102107.59;172666;28;883;-68
2022/06/17 00:03:07;;;;;;;13.48;9.90;;;;;;;15.64;88.60;102106.78;172711;28;855;-68
2022/06/17 00:03:12;;;;;;;13.33;9.77;;;;;;;15.64;88.81;102107.59;172696;28;1255;-68
2022/06/17 00:03:18;;;;;;;12.95;9.63;;;;;;;15.64;88.84;102112.88;172734;28;1086;-68
2022/06/17 00:03:27;;;;;;;13.50;9.60;;;;;;;15.64;89.02;102107.59;172753;28;970;-68
2022/06/17 00:03:34;;;;;;;12.99;9.64;;;;;;;15.64;88.83;102104.97;172750;28;1060;-68
2022/06/17 00:03:39;;;;;;;12.38;9.70;;;;;;;15.63;88.98;102105.91;172704;28;951;-68
2022/06/17 00:03:45;;;;;;;12.40;9.75;;;;;;;15.63;89.12;102111.16;172704;28;1034;-68
2022/06/17 00:03:53;;;;;;;12.53;9.90;;;;;;;15.64;89.00;102104.97;172662;28;900;-68
2022/06/17 00:03:59;;;;;;;11.10;10.00;;;;;;;15.64;89.09;102104.97;172725;28;966;-68
2022/06/17 00:04:06;;;;;;;11.25;10.15;;;;;;;15.64;89.49;102106.78;172791;28;938;-68
2022/06/17 00:04:12;;;;;;;11.27;10.18;;;;;;;15.64;89.62;102107.59;172712;28;1074;-68
2022/06/17 00:04:18;;;;;;;11.33;10.17;;;;;;;15.63;89.47;102105.91;172718;28;985;-67
2022/06/17 00:04:23;;;;;;;11.80;10.37;;;;;;;15.64;89.24;102110.25;172707;28;873;-68
2022/06/17 00:04:29;;;;;;;11.80;10.32;;;;;;;15.63;89.18;102105.91;172690;28;935;-67
2022/06/17 00:04:34;;;;;;;11.70;10.27;;;;;;;15.63;89.42;102108.53;172616;28;915;-68
2022/06/17 00:04:40;;;;;;;11.52;10.20;;;;;;;15.63;89.39;102103.28;172676;28;943;-68
2022/06/17 00:04:47;;;;;;;13.30;10.33;;;;;;;15.64;89.34;102104.97;172677;28;1236;-68
2022/06/17 00:04:52;;;;;;;12.68;10.04;;;;;;;15.64;89.27;102106.78;172667;28;915;-68
2022/06/17 00:04:57;;;;;;;13.60;9.90;;;;;;;15.63;89.60;102103.28;172665;28;879;-68
2022/06/17 00:05:03;;;;;;;14.13;9.90;;;;;;;15.63;89.32;102105.91;172692;28;1018;-67
2022/06/17 00:05:09;;;;;;;14.57;9.80;;;;;;;15.63;89.65;102105.06;172668;28;823;-67
2022/06/17 00:05:14;;;;;;;14.02;9.57;;;;;;;15.63;89.43;102105.91;172633;28;919;-68
2022/06/17 00:05:20;;;;;;;13.90;9.70;;;;;;;15.64;89.39;102106.78;172711;28;772;-67
2022/06/17 00:05:26;;;;;;;14.30;9.70;;;;;;;15.63;89.63;102105.91;172566;28;1110;-68
2022/06/17 00:05:31;;;;;;;13.35;9.57;;;;;;;15.64;89.51;102109.41;172661;28;1018;-68
2022/06/17 00:05:37;;;;;;;13.00;9.57;;;;;;;15.63;89.78;102108.53;172733;28;832;-68
2022/06/17 00:05:43;;;;;;;11.88;9.65;;;;;;;15.63;89.77;102100.66;172671;28;1271;-67
2022/06/17 00:05:50;;;;;;;12.23;9.82;;;;;;;15.63;89.37;102111.16;172669;28;994;-68
2022/06/17 00:05:59;;;;;;;12.23;10.00;;;;;;;15.63;89.39;102105.91;172634;28;871;-68
2022/06/17 00:06:09;;;;;;;13.80;10.20;;;;;;;15.62;89.70;102109.47;172707;28;951;-68
2022/06/17 00:06:15;;;;;;;14.13;10.18;;;;;;;15.62;89.72;102103.34;172678;28;1178;-67
2022/06/17 00:06:25;;;;;;;13.55;10.00;;;;;;;15.63;89.45;102102.44;172634;28;895;-67
2022/06/17 00:06:43;;;;;;;12.03;9.83;;;;;;;15.62;89.40;102109.47;172664;28;1050;-68
2022/06/17 00:06:54;;;;;;;11.18;9.94;;;;;;;15.61;89.46;102102.50;172698;28;1280;-68
2022/06/17 00:07:06;;;;;;;11.44;10.13;;;;;;;15.62;89.47;102105.97;172534;28;1271;-68
2022/06/17 00:07:15;;;;;;;12.55;10.07;;;;;;;15.61;89.38;102102.50;172722;28;1242;-68
2022/06/17 00:07:20;;;;;;;12.90;10.17;;;;;;;15.61;89.37;102105.13;172686;28;1073;-67
2022/06/17 00:07:26;;;;;;;13.17;10.10;;;;;;;15.61;89.42;102107.75;172586;28;927;-68
2022/06/17 00:07:31;;;;;;;12.27;10.15;;;;;;;15.61;89.34;102102.50;172653;28;1443;-68
2022/06/17 00:07:41;;;;;;;11.80;10.13;;;;;;;15.61;89.22;102102.50;172624;28;919;-67
2022/06/17 00:07:47;;;;;;;11.14;9.84;;;;;;;15.61;89.40;102107.75;171905;28;1438;-67
2022/06/17 00:07:52;;;;;;;11.15;9.85;;;;;;;15.61;89.44;102101.63;172007;28;844;-67
2022/06/17 00:07:57;;;;;;;11.10;9.90;;;;;;;15.61;89.18;102104.25;171948;28;763;-67
2022/06/17 00:08:03;;;;;;;11.93;9.90;;;;;;;15.61;89.30;102106.91;172009;28;1022;-67
2022/06/17 00:08:18;;;;;;;11.73;9.80;;;;;;;15.61;89.03;102101.63;171961;28;1112;-68
2022/06/17 00:08:31;;;;;;;13.31;9.85;;;;;;;15.61;89.29;102110.41;171944;28;1228;-68
2022/06/17 00:08:43;;;;;;;13.20;9.89;;;;;;;15.60;88.95;102111.28;172002;28;1241;-68
2022/06/17 00:08:52;;;;;;;12.23;10.21;;;;;;;15.60;89.08;102110.47;171963;28;1272;-67
2022/06/17 00:08:58;;;;;;;11.13;10.03;;;;;;;15.60;89.02;102116.56;171995;28;884;-68
2022/06/17 00:09:06;;;;;;;11.02;9.93;;;;;;;15.61;89.14;102117.41;171944;28;849;-68
2022/06/17 00:09:16;;;;;;;11.16;10.00;;;;;;;15.60;89.35;102111.28;171774;28;1489;-68
2022/06/17 00:09:24;;;;;;;10.97;9.87;;;;;;;15.61;89.06;102112.16;171782;28;1682;-68
2022/06/17 00:09:33;;;;;;;11.17;10.03;;;;;;;15.60;89.16;102106.03;172465;28;2202;-68
2022/06/17 00:09:39;;;;;;;11.80;10.27;;;;;;;15.60;89.22;102113.09;172695;28;955;-67
2022/06/17 00:09:44;;;;;;;11.55;10.10;;;;;;;15.59;89.24;102109.59;172903;28;963;-67
2022/06/17 00:09:50;;;;;;;12.50;10.23;;;;;;;15.59;89.08;102114.84;173346;28;1246;-67
2022/06/17 00:09:55;;;;;;;13.23;10.33;;;;;;;15.60;89.03;102111.28;172560;28;896;-67
2022/06/17 00:10:03;;;;;;;14.38;10.35;;;;;;;15.60;89.27;102113.94;172650;28;828;-67
2022/06/17 00:10:22;;;;;;;13.23;10.20;;;;;;;15.59;89.19;102120.13;172666;28;1145;-67
2022/06/17 00:10:28;;;;;;;13.02;10.06;;;;;;;15.60;89.01;102115.72;172648;28;1264;-67
2022/06/17 00:10:33;;;;;;;10.68;9.50;;;;;;;15.57;89.13;102116.72;172728;28;836;-67
2022/06/17 00:10:39;;;;;;;11.17;9.60;;;;;;;15.57;89.24;102116.72;172671;28;918;-67
2022/06/17 00:10:45;;;;;;;11.02;9.68;;;;;;;15.57;89.13;102114.09;172643;28;1046;-67
2022/06/17 00:10:50;;;;;;;11.15;9.95;;;;;;;15.56;88.94;102114.97;172654;28;943;-67
2022/06/17 00:10:56;;;;;;;11.43;10.23;;;;;;;15.55;89.05;102116.78;172650;28;903;-68
2022/06/17 00:11:02;;;;;;;11.50;10.30;;;;;;;15.54;89.01;102115.03;172672;28;911;-67
2022/06/17 00:11:19;;;;;;;11.32;10.13;;;;;;;15.56;88.97;102120.25;172611;28;1043;-67
2022/06/17 00:11:31;;;;;;;11.16;10.02;;;;;;;15.55;88.99;102108.88;172648;28;1258;-68
2022/06/17 00:11:38;;;;;;;11.77;9.89;;;;;;;15.56;88.86;102115.84;172668;28;1240;-68
2022/06/17 00:11:44;;;;;;;14.07;10.00;;;;;;;15.56;88.64;102117.63;172659;28;875;-67
2022/06/17 00:11:49;;;;;;;14.68;9.75;;;;;;;15.56;88.61;102117.63;172637;28;1042;-68
2022/06/17 00:11:55;;;;;;;14.82;9.77;;;;;;;15.56;88.86;102113.22;173088;28;1069;-68
2022/06/17 00:12:04;;;;;;;14.25;10.00;;;;;;;15.57;88.73;102121.97;173335;28;1029;-68
2022/06/17 00:12:14;;;;;;;13.61;9.96;;;;;;;15.56;88.66;102114.97;173226;28;1071;-68
2022/06/17 00:12:19;;;;;;;11.40;10.10;;;;;;;15.57;88.75;102114.09;173349;28;915;-68
2022/06/17 00:12:25;;;;;;;11.25;10.05;;;;;;;15.55;88.64;102113.28;173349;28;836;-67
2022/06/17 00:12:30;;;;;;;11.17;9.87;;;;;;;15.56;88.75;102110.59;173351;28;836;-68
2022/06/17 00:12:35;;;;;;;11.47;9.90;;;;;;;15.54;88.69;102116.84;173437;28;883;-67
2022/06/17 00:12:41;;;;;;;12.20;9.80;;;;;;;15.54;88.54;102111.59;173375;28;843;-67
2022/06/17 00:12:47;;;;;;;11.87;9.63;;;;;;;15.54;88.73;102116.84;173348;28;891;-68
2022/06/17 00:12:53;;;;;;;12.03;9.57;;;;;;;15.55;88.67;102105.38;173360;28;1057;-67
2022/06/17 00:12:58;;;;;;;11.93;9.57;;;;;;;15.55;88.68;102113.28;173379;28;1329;-67
2022/06/17 00:13:05;;;;;;;10.95;9.65;;;;;;;15.55;88.40;102118.53;173323;28;832;-68
2022/06/17 00:13:16;;;;;;;10.93;9.80;;;;;;;15.56;88.62;102114.97;172744;28;797;-68
2022/06/17 00:13:24;;;;;;;11.63;9.99;;;;;;;15.57;88.46;102111.44;172701;28;1258;-68
2022/06/17 00:13:30;;;;;;;12.43;10.22;;;;;;;15.57;88.69;102116.72;172700;28;966;-67
2022/06/17 00:13:35;;;;;;;12.97;10.30;;;;;;;15.56;88.54;102109.72;172757;28;911;-67
2022/06/17 00:13:40;;;;;;;12.87;10.10;;;;;;;15.58;88.66;102113.16;172592;28;1058;-68
2022/06/17 00:13:46;;;;;;;12.85;10.00;;;;;;;15.56;88.34;102109.72;172614;28;911;-68
2022/06/17 00:13:52;;;;;;;13.23;9.97;;;;;;;15.57;88.43;102114.09;172641;28;963;-67
2022/06/17 00:13:58;;;;;;;12.77;9.88;;;;;;;15.56;88.67;102110.59;172510;28;928;-67
2022/06/17 00:14:18;;;;;;;12.85;9.75;;;;;;;15.57;88.28;102112.28;172565;28;899;-67
2022/06/17 00:14:33;;;;;;;12.99;9.73;;;;;;;15.57;88.19;102112.28;172658;28;1241;-68
2022/06/17 00:15:22;;;;;;;11.21;9.55;;;;;;;15.58;88.16;102118.41;172560;28;1235;-68
2022/06/17 00:15:27;;;;;;;12.67;9.77;;;;;;;15.58;88.13;102121.03;172621;28;907;-67
2022/06/17 00:15:32;;;;;;;12.98;9.70;;;;;;;15.56;88.31;102110.59;172627;28;911;-68
2022/06/17 00:15:38;;;;;;;13.37;9.70;;;;;;;15.57;88.41;102111.44;172769;28;1557;-68
2022/06/17 00:15:45;;;;;;;13.35;9.82;;;;;;;15.57;88.47;102114.91;173299;28;848;-68
2022/06/17 00:15:52;;;;;;;12.80;9.80;;;;;;;15.57;88.38;102119.34;173346;28;970;-68
2022/06/17 00:15:57;;;;;;;12.28;9.82;;;;;;;15.57;88.32;102119.34;173273;28;971;-68
2022/06/17 00:16:10;;;;;;;11.77;9.93;;;;;;;15.56;88.37;102118.47;173295;28;947;-68
2022/06/17 00:16:19;;;;;;;11.65;9.79;;;;;;;15.56;88.36;102115.84;172451;28;1741;-68
2022/06/17 00:16:26;;;;;;;11.33;9.70;;;;;;;15.57;88.29;102114.09;172614;28;1067;-67
2022/06/17 00:16:32;;;;;;;11.50;9.63;;;;;;;15.56;88.41;102115.84;172655;28;888;-67
2022/06/17 00:16:37;;;;;;;11.44;9.50;;;;;;;15.57;88.19;102101.75;172685;28;923;-68
2022/06/17 00:16:44;;;;;;;11.60;9.53;;;;;;;15.57;88.18;102116.72;172622;28;852;-68
2022/06/17 00:16:49;;;;;;;10.93;9.50;;;;;;;15.57;88.39;102111.44;172668;28;923;-67
2022/06/17 00:16:55;;;;;;;12.02;9.55;;;;;;;15.56;88.09;102114.97;172609;28;884;-68
2022/06/17 00:17:04;;;;;;;11.53;9.50;;;;;;;15.58;88.01;102118.41;172625;28;932;-67
2022/06/17 00:17:09;;;;;;;12.87;9.64;;;;;;;15.57;88.04;102111.44;172675;28;1055;-68
2022/06/17 00:17:14;;;;;;;13.25;9.75;;;;;;;15.58;87.96;102118.41;172631;28;1339;-68
2022/06/17 00:17:21;;;;;;;13.20;9.90;;;;;;;15.56;87.96;102110.59;172632;28;1026;-68
2022/06/17 00:17:26;;;;;;;12.93;9.90;;;;;;;15.57;88.32;102116.72;172657;28;1053;-67
2022/06/17 00:17:32;;;;;;;12.67;9.80;;;;;;;15.56;88.20;102113.22;172646;28;852;-68
2022/06/17 00:17:37;;;;;;;11.57;9.82;;;;;;;15.57;87.90;102116.72;172687;28;1289;-67
2022/06/17 00:17:52;;;;;;;11.23;9.80;;;;;;;15.57;87.94;102111.44;172671;28;982;-68
2022/06/17 00:17:58;;;;;;;12.06;9.94;;;;;;;15.56;87.84;102120.25;172633;28;1231;-67
2022/06/17 00:18:03;;;;;;;13.60;10.00;;;;;;;15.56;87.93;102115.84;172624;28;864;-68
2022/06/17 00:18:09;;;;;;;12.90;10.10;;;;;;;15.57;88.01;102114.09;172695;28;832;-67
2022/06/17 00:18:18;;;;;;;13.02;9.93;;;;;;;15.57;88.05;102116.72;172923;28;1008;-68
2022/06/17 00:18:24;;;;;;;11.93;9.61;;;;;;;15.57;87.83;102111.44;173206;28;2325;-67
2022/06/17 00:18:30;;;;;;;10.57;9.57;;;;;;;15.57;88.12;102116.72;173260;28;950;-68
2022/06/17 00:18:35;;;;;;;10.67;9.60;;;;;;;15.58;87.72;102118.41;173325;28;951;-68
2022/06/17 00:18:42;;;;;;;10.70;9.55;;;;;;;15.57;88.17;102114.09;173306;28;1010;-68
2022/06/17 00:18:49;;;;;;;11.43;9.50;;;;;;;15.57;87.77;102109.66;173348;28;950;-68
2022/06/17 00:18:54;;;;;;;11.70;9.73;;;;;;;15.56;87.94;102113.22;173308;28;899;-68
2022/06/17 00:19:00;;;;;;;11.45;9.68;;;;;;;15.57;88.21;102111.44;173298;28;1077;-68
2022/06/17 00:19:05;;;;;;;11.88;9.50;;;;;;;15.56;87.84;102109.72;173341;28;1088;-67
2022/06/17 00:19:12;;;;;;;11.83;9.43;;;;;;;15.56;88.13;102112.34;173302;28;958;-68
2022/06/17 00:19:19;;;;;;;12.10;9.73;;;;;;;15.55;88.02;102118.53;173328;28;1014;-68
2022/06/17 00:19:25;;;;;;;12.33;9.50;;;;;;;15.55;87.90;102113.28;173337;28;1026;-68
2022/06/17 00:19:30;;;;;;;12.07;9.38;;;;;;;15.55;88.03;102108.03;173289;28;931;-68
2022/06/17 00:19:35;;;;;;;11.73;9.37;;;;;;;15.55;88.12;102110.66;173336;28;1315;-68
2022/06/17 00:19:41;;;;;;;11.53;9.43;;;;;;;15.54;88.18;102109.78;173315;28;879;-67
2022/06/17 00:19:46;;;;;;;10.90;9.27;;;;;;;15.54;88.10;102117.69;173338;28;917;-68
2022/06/17 00:19:52;;;;;;;10.17;9.10;;;;;;;15.54;88.14;102111.59;173319;28;867;-68
2022/06/17 00:19:57;;;;;;;10.40;9.20;;;;;;;15.53;88.13;102115.97;173331;28;1081;-68
2022/06/17 00:20:11;;;;;;;10.63;9.43;;;;;;;15.53;87.95;102115.97;173302;28;1030;-68
2022/06/17 00:20:22;;;;;;;10.74;9.60;;;;;;;15.55;88.13;102115.91;173262;28;1241;-68
2022/06/17 00:20:30;;;;;;;11.22;10.01;;;;;;;15.53;88.21;102109.88;173214;28;1563;-68
2022/06/17 00:20:36;;;;;;;11.23;9.92;;;;;;;15.53;88.17;102110.72;173333;28;919;-68
2022/06/17 00:20:43;;;;;;;11.18;9.90;;;;;;;15.53;88.21;102115.13;173299;28;875;-68
2022/06/17 00:20:50;;;;;;;11.53;9.73;;;;;;;15.53;88.24;102117.78;173314;28;967;-68
2022/06/17 00:20:56;;;;;;;11.75;9.73;;;;;;;15.52;88.13;102108.16;173321;28;1214;-68
2022/06/17 00:21:03;;;;;;;11.55;9.82;;;;;;;15.51;88.11;102111.72;173327;28;919;-68
2022/06/17 00:21:23;;;;;;;11.80;9.90;;;;;;;15.50;87.96;102116.09;173350;28;911;-68
2022/06/17 00:21:34;;;;;;;13.52;10.15;;;;;;;15.49;88.38;102114.41;173004;28;1248;-68
2022/06/17 00:21:45;;;;;;;14.98;10.34;;;;;;;15.48;88.17;102114.47;172720;28;1262;-68
2022/06/17 00:21:53;;;;;;;13.11;10.22;;;;;;;15.47;88.33;102110.13;172724;28;1275;-68
2022/06/17 00:22:00;;;;;;;11.27;10.00;;;;;;;15.45;88.02;102113.69;172747;28;1034;-67
2022/06/17 00:22:08;;;;;;;12.42;10.16;;;;;;;15.44;88.38;102111.97;172774;28;997;-68
2022/06/17 00:22:14;;;;;;;13.15;10.28;;;;;;;15.44;88.09;102116.38;172709;28;1081;-68
2022/06/17 00:22:20;;;;;;;12.98;10.38;;;;;;;15.44;88.21;102119.84;172734;28;1010;-68
2022/06/17 00:22:26;;;;;;;12.63;10.23;;;;;;;15.42;88.39;102116.44;172717;28;1013;-68
2022/06/17 00:22:31;;;;;;;12.80;10.02;;;;;;;15.43;88.33;102114.69;172739;28;856;-68
2022/06/17 00:22:42;;;;;;;12.03;10.10;;;;;;;15.44;88.33;102119.00;172653;28;1025;-68
2022/06/17 00:22:48;;;;;;;11.39;9.81;;;;;;;15.43;88.09;102115.50;172704;28;1264;-67
2022/06/17 00:22:53;;;;;;;11.32;9.90;;;;;;;15.43;88.25;102120.78;172717;28;875;-67
2022/06/17 00:22:59;;;;;;;11.40;10.13;;;;;;;15.44;88.04;102121.66;172700;28;1277;-68
2022/06/17 00:23:11;;;;;;;11.32;10.13;;;;;;;15.43;88.13;102118.16;172728;28;931;-67
2022/06/17 00:23:22;;;;;;;11.32;10.13;;;;;;;15.43;87.75;102112.06;172708;28;1390;-68
2022/06/17 00:23:27;;;;;;;11.11;9.94;;;;;;;15.43;87.83;102120.78;172708;28;1180;-67
2022/06/17 00:23:33;;;;;;;11.17;9.87;;;;;;;15.42;87.68;102115.56;172714;28;1272;-67
2022/06/17 00:23:38;;;;;;;11.00;9.63;;;;;;;15.41;87.92;102122.63;172775;28;1030;-68
2022/06/17 00:23:43;;;;;;;11.20;9.57;;;;;;;15.41;87.72;102127.91;172686;28;856;-68
2022/06/17 00:23:50;;;;;;;11.45;9.55;;;;;;;15.41;87.62;102120.00;172743;28;852;-68
2022/06/17 00:23:56;;;;;;;11.90;9.70;;;;;;;15.41;87.65;102117.38;172684;28;987;-68
2022/06/17 00:24:22;;;;;;;11.53;9.80;;;;;;;15.43;87.61;102114.69;172743;28;975;-67
2022/06/17 00:24:32;;;;;;;11.89;9.91;;;;;;;15.42;87.32;102124.34;172663;28;1235;-67
2022/06/17 00:24:38;;;;;;;11.89;9.80;;;;;;;15.43;87.41;102119.94;172733;28;1250;-68
2022/06/17 00:24:44;;;;;;;11.23;9.87;;;;;;;15.42;87.13;102124.34;172707;28;967;-67
2022/06/17 00:24:52;;;;;;;10.95;9.85;;;;;;;15.43;87.22;102126.03;172680;28;1178;-67
2022/06/17 00:24:58;;;;;;;10.94;9.84;;;;;;;15.43;87.20;102126.03;172685;28;1054;-67
2022/06/17 00:25:15;;;;;;;11.10;9.90;;;;;;;15.43;87.17;102126.03;172748;28;1085;-68
2022/06/17 00:25:32;;;;;;;11.36;9.79;;;;;;;15.43;87.02;102122.56;172698;28;1243;-68
2022/06/17 00:25:39;;;;;;;10.85;9.63;;;;;;;15.43;87.29;102120.78;172743;28;1418;-67
2022/06/17 00:25:47;;;;;;;10.55;9.52;;;;;;;15.43;87.29;102125.19;172698;28;1018;-68
2022/06/17 00:25:52;;;;;;;10.52;9.50;;;;;;;15.43;87.39;102126.03;172696;28;976;-68
2022/06/17 00:25:58;;;;;;;11.23;9.70;;;;;;;15.43;87.17;102126.03;172576;28;907;-68
2022/06/17 00:26:03;;;;;;;11.47;9.77;;;;;;;15.44;87.49;102126.91;172623;28;898;-68
2022/06/17 00:26:10;;;;;;;12.17;9.73;;;;;;;15.43;87.43;102127.84;172687;28;836;-67
2022/06/17 00:26:16;;;;;;;12.58;9.87;;;;;;;15.44;87.19;102122.47;172660;28;957;-68
2022/06/17 00:26:22;;;;;;;12.83;9.93;;;;;;;15.44;87.11;102121.66;172679;28;1018;-67
2022/06/17 00:26:27;;;;;;;12.10;9.88;;;;;;;15.44;87.62;102121.66;171923;28;1056;-68
2022/06/17 00:26:33;;;;;;;12.18;9.90;;;;;;;15.43;87.45;102125.19;171986;28;987;-68
2022/06/17 00:26:38;;;;;;;11.73;9.87;;;;;;;15.43;87.25;102123.41;172015;28;1018;-68
2022/06/17 00:26:45;;;;;;;12.15;9.82;;;;;;;15.43;87.55;102126.03;171930;28;924;-68
2022/06/17 00:26:54;;;;;;;12.10;9.60;;;;;;;15.43;87.46;102118.16;171964;28;892;-67
2022/06/17 00:26:59;;;;;;;12.33;9.53;;;;;;;15.42;87.40;102124.34;171992;28;986;-67
2022/06/17 00:27:06;;;;;;;11.85;9.48;;;;;;;15.41;87.63;102122.63;172012;28;1113;-67
2022/06/17 00:27:13;;;;;;;11.52;9.40;;;;;;;15.42;87.40;102124.34;171987;28;1181;-67
2022/06/17 00:27:19;;;;;;;10.60;9.42;;;;;;;15.42;87.69;102124.34;171199;28;1773;-68
2022/06/17 00:27:24;;;;;;;11.05;9.60;;;;;;;15.42;87.57;102129.59;171347;28;1126;-68
2022/06/17 00:27:29;;;;;;;11.70;9.80;;;;;;;15.42;87.49;102128.72;171323;28;920;-68
2022/06/17 00:27:35;;;;;;;12.45;9.70;;;;;;;15.42;87.69;102124.34;171342;28;939;-68
2022/06/17 00:27:40;;;;;;;12.63;9.67;;;;;;;15.40;87.76;102126.16;171365;28;995;-68
2022/06/17 00:27:46;;;;;;;13.17;9.50;;;;;;;15.41;87.57;102127.91;171309;28;1228;-68
2022/06/17 00:27:54;;;;;;;13.40;9.40;;;;;;;15.40;87.67;102128.78;171297;28;1026;-68
2022/06/17 00:28:01;;;;;;;12.93;9.50;;;;;;;15.39;87.79;102127.09;172013;28;1090;-67
2022/06/17 00:28:12;;;;;;;12.43;9.50;;;;;;;15.39;87.79;102123.59;172012;28;892;-68
2022/06/17 00:28:23;;;;;;;13.31;9.64;;;;;;;15.38;87.75;102127.16;171970;28;1234;-68
2022/06/17 00:28:29;;;;;;;11.78;9.77;;;;;;;15.38;87.94;102122.75;172539;28;1584;-68
2022/06/17 00:28:34;;;;;;;11.33;9.70;;;;;;;15.38;87.86;102122.75;172661;28;1193;-68
2022/06/17 00:28:39;;;;;;;11.07;9.68;;;;;;;15.38;87.72;102127.16;172696;28;915;-67
2022/06/17 00:28:46;;;;;;;10.77;9.57;;;;;;;15.38;88.01;102127.16;172641;28;832;-67
2022/06/17 00:28:51;;;;;;;11.73;9.43;;;;;;;15.38;87.92;102133.28;172634;28;907;-67
2022/06/17 00:28:57;;;;;;;11.73;9.30;;;;;;;15.38;87.80;102128.03;172614;28;1241;-67
2022/06/17 00:29:02;;;;;;;12.37;9.40;;;;;;;15.37;87.86;102126.31;172667;28;1104;-68
2022/06/17 00:29:19;;;;;;;12.40;9.40;;;;;;;15.37;88.00;102128.09;172701;28;1056;-68
2022/06/17 00:29:29;;;;;;;11.68;9.36;;;;;;;15.37;87.82;102128.94;173328;28;1231;-68
2022/06/17 00:29:35;;;;;;;11.48;9.64;;;;;;;15.36;87.89;102127.22;173312;28;1160;-68
2022/06/17 00:29:40;;;;;;;12.50;9.87;;;;;;;15.35;87.84;102128.13;173364;28;847;-67
2022/06/17 00:29:46;;;;;;;13.05;10.18;;;;;;;15.35;87.94;102125.50;173321;28;934;-68
2022/06/17 00:29:51;;;;;;;13.40;10.10;;;;;;;15.36;87.92;102129.00;173358;28;914;-67
2022/06/17 00:30:18;;;;;;;13.15;9.88;;;;;;;15.34;87.73;102121.19;173369;28;847;-68
2022/06/17 00:30:31;;;;;;;12.74;9.55;;;;;;;15.35;87.89;102128.13;173329;28;1236;-67
2022/06/17 00:30:37;;;;;;;11.81;9.19;;;;;;;15.35;87.94;102122.00;172756;28;1246;-68
2022/06/17 00:30:45;;;;;;;12.02;9.15;;;;;;;15.35;88.01;102120.25;172703;28;1100;-68
2022/06/17 00:30:51;;;;;;;12.30;9.55;;;;;;;15.35;88.12;102128.13;172706;28;965;-67
2022/06/17 00:30:56;;;;;;;12.15;9.85;;;;;;;15.34;88.01;102131.69;172635;28;1264;-67
2022/06/17 00:31:01;;;;;;;11.97;10.00;;;;;;;15.34;87.79;102126.44;172709;28;1081;-68
2022/06/17 00:31:07;;;;;;;11.63;10.03;;;;;;;15.35;88.08;102129.91;172615;28;903;-67
2022/06/17 00:31:12;;;;;;;12.95;10.13;;;;;;;15.34;87.75;102123.81;172679;28;1045;-67
2022/06/17 00:31:18;;;;;;;12.47;9.83;;;;;;;15.34;88.01;102126.44;172674;28;894;-67
2022/06/17 00:31:23;;;;;;;12.27;9.70;;;;;;;15.34;87.99;102126.44;172666;28;1396;-68
2022/06/17 00:31:28;;;;;;;11.27;9.37;;;;;;;15.34;87.74;102126.44;172588;28;859;-68
2022/06/17 00:31:34;;;;;;;10.63;9.40;;;;;;;15.33;88.06;102124.75;172649;28;926;-68
2022/06/17 00:31:39;;;;;;;10.80;9.38;;;;;;;15.33;87.74;102124.75;172666;28;1112;-68
2022/06/17 00:31:45;;;;;;;10.37;9.37;;;;;;;15.34;87.97;102131.69;171897;28;1424;-68
2022/06/17 00:31:51;;;;;;;10.57;9.48;;;;;;;15.33;87.70;102124.75;171306;28;899;-67
2022/06/17 00:31:59;;;;;;;10.70;9.60;;;;;;;15.33;87.84;102119.47;171130;28;919;-68
2022/06/17 00:32:05;;;;;;;10.93;9.60;;;;;;;15.32;88.06;102123.00;171882;28;1242;-68
2022/06/17 00:32:10;;;;;;;11.17;9.53;;;;;;;15.32;87.79;102123.88;172034;28;1101;-67
2022/06/17 00:32:16;;;;;;;11.23;9.63;;;;;;;15.32;88.07;102120.38;171998;28;1041;-67
2022/06/17 00:32:21;;;;;;;10.47;9.37;;;;;;;15.32;87.84;102123.00;171964;28;919;-68
2022/06/17 00:32:26;;;;;;;10.68;9.48;;;;;;;15.32;87.80;102123.00;171984;28;1038;-67
2022/06/17 00:32:32;;;;;;;11.00;9.70;;;;;;;15.32;87.95;102123.00;172023;28;947;-67
2022/06/17 00:32:37;;;;;;;11.20;9.70;;;;;;;15.32;87.83;102121.25;172023;28;955;-68
2022/06/17 00:32:42;;;;;;;11.20;9.80;;;;;;;15.31;87.92;102124.81;172003;28;939;-67
2022/06/17 00:32:55;;;;;;;12.17;9.93;;;;;;;15.33;87.69;102124.75;171984;28;923;-68
2022/06/17 00:33:03;;;;;;;11.90;10.00;;;;;;;15.32;88.00;102123.88;171921;28;1277;-68
2022/06/17 00:33:09;;;;;;;11.30;9.70;;;;;;;15.32;87.82;102123.00;171984;28;1074;-67
2022/06/17 00:33:17;;;;;;;11.10;9.43;;;;;;;15.32;87.71;102123.00;171995;28;966;-67
2022/06/17 00:33:22;;;;;;;11.73;9.40;;;;;;;15.32;87.82;102123.00;172002;28;942;-68
2022/06/17 00:33:27;;;;;;;12.47;9.43;;;;;;;15.32;87.87;102117.75;172367;28;1092;-68
2022/06/17 00:33:33;;;;;;;11.63;9.37;;;;;;;15.32;87.83;102117.75;172680;28;1030;-67
2022/06/17 00:33:38;;;;;;;12.55;9.50;;;;;;;15.31;88.07;102116.91;172709;28;1041;-68
2022/06/17 00:33:44;;;;;;;12.43;9.60;;;;;;;15.31;87.95;102122.16;173018;28;1096;-67
2022/06/17 00:33:49;;;;;;;12.35;9.63;;;;;;;15.31;88.09;102119.53;173345;28;914;-68
2022/06/17 00:33:55;;;;;;;12.20;9.60;;;;;;;15.31;88.00;102121.31;173316;28;1460;-68
2022/06/17 00:34:00;;;;;;;12.07;9.68;;;;;;;15.31;88.16;102122.16;173306;28;768;-67
2022/06/17 00:34:06;;;;;;;11.83;9.57;;;;;;;15.31;87.65;102122.16;172738;28;839;-68
2022/06/17 00:34:12;;;;;;;11.10;9.48;;;;;;;15.32;87.90;102125.63;172753;28;1093;-68
2022/06/17 00:34:18;;;;;;;11.32;9.45;;;;;;;15.31;88.04;102126.56;172705;28;1037;-67
2022/06/17 00:34:24;;;;;;;10.70;9.13;;;;;;;15.31;88.02;102119.53;172704;28;919;-68